sensor_id;sensor_type;location;lat;lon;timestamp;pressure;altitude;pressure_sealevel;temperature;humidity
72925;BME280;61070;50.794;7.054;2023-07-31T00:00:17;100528.13;;;18.13;99.34
72925;BME280;61070;50.794;7.054;2023-07-31T00:00:47;100525.69;;;18.07;98.92
72925;BME280;61070;50.794;7.054;2023-07-31T00:01:17;100531.78;;;18.11;98.54
72925;BME280;61070;50.794;7.054;2023-07-31T00:01:47;100529.94;;;18.13;98.39
72925;BME280;61070;50.794;7.054;2023-07-31T00:02:18;100536.28;;;18.10;98.88
72925;BME280;61070;50.794;7.054;2023-07-31T00:02:48;100532.72;;;18.10;99.35
72925;BME280;61070;50.794;7.054;2023-07-31T00:03:18;100534.69;;;18.06;99.99
72925;BME280;61070;50.794;7.054;2023-07-31T00:03:49;100530.91;;;18.10;99.62
72925;BME280;61070;50.794;7.054;2023-07-31T00:04:19;100523.88;;;18.08;99.48
72925;BME280;61070;50.794;7.054;2023-07-31T00:04:49;100527.97;;;18.16;98.89
72925;BME280;61070;50.794;7.054;2023-07-31T00:05:20;100531.75;;;18.12;98.08
72925;BME280;61070;50.794;7.054;2023-07-31T00:05:50;100529.28;;;18.26;97.67
72925;BME280;61070;50.794;7.054;2023-07-31T00:06:21;100519.91;;;18.16;98.24
72925;BME280;61070;50.794;7.054;2023-07-31T00:06:51;100524.25;;;18.19;98.16
72925;BME280;61070;50.794;7.054;2023-07-31T00:07:22;100523.41;;;18.18;97.89
72925;BME280;61070;50.794;7.054;2023-07-31T00:07:52;100525.44;;;18.13;98.62
72925;BME280;61070;50.794;7.054;2023-07-31T00:08:24;100518.38;;;18.11;98.27
72925;BME280;61070;50.794;7.054;2023-07-31T00:08:54;100519.22;;;18.13;97.63
72925;BME280;61070;50.794;7.054;2023-07-31T00:09:24;100509.72;;;18.24;98.38
72925;BME280;61070;50.794;7.054;2023-07-31T00:09:54;100519.69;;;18.21;97.83
72925;BME280;61070;50.794;7.054;2023-07-31T00:10:26;100517.31;;;18.15;97.77
72925;BME280;61070;50.794;7.054;2023-07-31T00:10:56;100517.38;;;18.13;98.50
72925;BME280;61070;50.794;7.054;2023-07-31T00:11:27;100520.19;;;18.10;99.46
72925;BME280;61070;50.794;7.054;2023-07-31T00:11:57;100519.47;;;18.07;99.48
72925;BME280;61070;50.794;7.054;2023-07-31T00:12:27;100514.97;;;18.07;99.45
72925;BME280;61070;50.794;7.054;2023-07-31T00:12:58;100523.69;;;18.12;99.56
72925;BME280;61070;50.794;7.054;2023-07-31T00:13:28;100522.94;;;18.09;100.00
72925;BME280;61070;50.794;7.054;2023-07-31T00:13:58;100514.97;;;18.07;100.00
72925;BME280;61070;50.794;7.054;2023-07-31T00:14:28;100519.25;;;18.11;99.10
72925;BME280;61070;50.794;7.054;2023-07-31T00:14:59;100515.06;;;18.06;99.65
72925;BME280;61070;50.794;7.054;2023-07-31T00:15:29;100522.53;;;18.18;99.00
72925;BME280;61070;50.794;7.054;2023-07-31T00:15:59;100512.16;;;18.10;98.10
72925;BME280;61070;50.794;7.054;2023-07-31T00:16:30;100519.63;;;18.22;98.31
72925;BME280;61070;50.794;7.054;2023-07-31T00:17:00;100520.44;;;18.24;98.17
72925;BME280;61070;50.794;7.054;2023-07-31T00:17:31;100527.09;;;18.16;98.09
72925;BME280;61070;50.794;7.054;2023-07-31T00:18:01;100520.94;;;18.14;98.70
72925;BME280;61070;50.794;7.054;2023-07-31T00:18:31;100520.19;;;18.10;100.00
72925;BME280;61070;50.794;7.054;2023-07-31T00:19:02;100529.06;;;18.12;100.00
72925;BME280;61070;50.794;7.054;2023-07-31T00:19:32;100526.41;;;18.11;99.24
72925;BME280;61070;50.794;7.054;2023-07-31T00:20:03;100522.53;;;18.18;98.35
72925;BME280;61070;50.794;7.054;2023-07-31T00:20:33;100528.84;;;18.17;98.88
72925;BME280;61070;50.794;7.054;2023-07-31T00:21:03;100526.88;;;18.20;97.59
72925;BME280;61070;50.794;7.054;2023-07-31T00:21:33;100528.84;;;18.17;98.78
72925;BME280;61070;50.794;7.054;2023-07-31T00:22:04;100530.84;;;18.12;98.75
72925;BME280;61070;50.794;7.054;2023-07-31T00:22:35;100525.44;;;18.13;98.44
72925;BME280;61070;50.794;7.054;2023-07-31T00:23:06;100527.66;;;18.22;98.27
72925;BME280;61070;50.794;7.054;2023-07-31T00:23:36;100528.75;;;18.18;98.21
72925;BME280;61070;50.794;7.054;2023-07-31T00:24:07;100530.31;;;18.24;98.17
72925;BME280;61070;50.794;7.054;2023-07-31T00:24:37;100531.44;;;18.18;98.03
72925;BME280;61070;50.794;7.054;2023-07-31T00:25:07;100523.16;;;18.23;98.23
72925;BME280;61070;50.794;7.054;2023-07-31T00:25:38;100515.66;;;18.31;96.91
72925;BME280;61070;50.794;7.054;2023-07-31T00:26:08;100530.53;;;18.38;96.85
72925;BME280;61070;50.794;7.054;2023-07-31T00:26:38;100528.25;;;18.29;98.35
72925;BME280;61070;50.794;7.054;2023-07-31T00:27:08;100530.22;;;18.25;98.65
72925;BME280;61070;50.794;7.054;2023-07-31T00:27:39;100528.50;;;18.24;99.32
72925;BME280;61070;50.794;7.054;2023-07-31T00:28:09;100529.22;;;18.28;98.07
72925;BME280;61070;50.794;7.054;2023-07-31T00:28:40;100532.91;;;18.25;98.67
72925;BME280;61070;50.794;7.054;2023-07-31T00:29:10;100529.47;;;18.22;98.56
72925;BME280;61070;50.794;7.054;2023-07-31T00:29:40;100523.91;;;18.26;98.99
72925;BME280;61070;50.794;7.054;2023-07-31T00:30:11;100521.25;;;18.26;98.02
72925;BME280;61070;50.794;7.054;2023-07-31T00:30:41;100517.47;;;18.30;97.75
72925;BME280;61070;50.794;7.054;2023-07-31T00:31:11;100522.66;;;18.33;96.91
72925;BME280;61070;50.794;7.054;2023-07-31T00:31:41;100522.81;;;18.30;97.71
72925;BME280;61070;50.794;7.054;2023-07-31T00:32:12;100526.31;;;18.32;97.98
72925;BME280;61070;50.794;7.054;2023-07-31T00:32:42;100522.66;;;18.33;96.91
72925;BME280;61070;50.794;7.054;2023-07-31T00:33:12;100518.63;;;18.44;96.26
72925;BME280;61070;50.794;7.054;2023-07-31T00:33:42;100526.09;;;18.37;96.80
72925;BME280;61070;50.794;7.054;2023-07-31T00:34:13;100522.66;;;18.33;96.96
72925;BME280;61070;50.794;7.054;2023-07-31T00:34:43;100528.34;;;18.27;97.94
72925;BME280;61070;50.794;7.054;2023-07-31T00:35:13;100529.44;;;18.23;98.02
72925;BME280;61070;50.794;7.054;2023-07-31T00:35:44;100516.38;;;18.34;97.41
72925;BME280;61070;50.794;7.054;2023-07-31T00:36:14;100522.56;;;18.37;97.41
72925;BME280;61070;50.794;7.054;2023-07-31T00:36:44;100521.72;;;18.34;98.35
72925;BME280;61070;50.794;7.054;2023-07-31T00:37:14;100518.47;;;18.28;98.81
72925;BME280;61070;50.794;7.054;2023-07-31T00:37:45;100526.59;;;18.26;99.03
72925;BME280;61070;50.794;7.054;2023-07-31T00:38:15;100530.22;;;18.25;98.41
72925;BME280;61070;50.794;7.054;2023-07-31T00:38:46;100522.38;;;18.21;98.38
72925;BME280;61070;50.794;7.054;2023-07-31T00:39:16;100525.50;;;18.30;98.82
72925;BME280;61070;50.794;7.054;2023-07-31T00:39:46;100522.81;;;18.30;98.76
72925;BME280;61070;50.794;7.054;2023-07-31T00:40:17;100523.19;;;18.42;98.37
72925;BME280;61070;50.794;7.054;2023-07-31T00:40:47;100526.91;;;18.39;97.15
72925;BME280;61070;50.794;7.054;2023-07-31T00:41:17;100524.13;;;18.41;97.48
72925;BME280;61070;50.794;7.054;2023-07-31T00:41:47;100521.22;;;18.45;96.69
72925;BME280;61070;50.794;7.054;2023-07-31T00:42:18;100521.53;;;18.39;96.50
72925;BME280;61070;50.794;7.054;2023-07-31T00:42:48;100525.31;;;18.35;97.54
72925;BME280;61070;50.794;7.054;2023-07-31T00:43:18;100526.22;;;18.34;98.11
72925;BME280;61070;50.794;7.054;2023-07-31T00:43:49;100525.16;;;18.38;97.62
72925;BME280;61070;50.794;7.054;2023-07-31T00:44:19;100537.56;;;18.41;97.59
72925;BME280;61070;50.794;7.054;2023-07-31T00:44:49;100533.28;;;18.37;96.93
72925;BME280;61070;50.794;7.054;2023-07-31T00:45:22;100536.03;;;18.35;96.73
72925;BME280;61070;50.794;7.054;2023-07-31T00:45:53;100536.03;;;18.35;97.35
72925;BME280;61070;50.794;7.054;2023-07-31T00:46:24;100531.31;;;18.40;96.98
72925;BME280;61070;50.794;7.054;2023-07-31T00:46:55;100532.69;;;18.49;96.49
72925;BME280;61070;50.794;7.054;2023-07-31T00:47:26;100531.75;;;18.50;96.43
72925;BME280;61070;50.794;7.054;2023-07-31T00:47:56;100532.09;;;18.42;97.26
72925;BME280;61070;50.794;7.054;2023-07-31T00:48:27;100529.50;;;18.41;96.73
72925;BME280;61070;50.794;7.054;2023-07-31T00:48:58;100528.13;;;18.32;97.70
72925;BME280;61070;50.794;7.054;2023-07-31T00:49:29;100527.69;;;18.41;97.12
72925;BME280;61070;50.794;7.054;2023-07-31T00:49:59;100531.59;;;18.34;96.76
72925;BME280;61070;50.794;7.054;2023-07-31T00:50:29;100528.97;;;18.32;96.77
72925;BME280;61070;50.794;7.054;2023-07-31T00:51:00;100532.69;;;18.30;97.40
72925;BME280;61070;50.794;7.054;2023-07-31T00:51:31;100530.78;;;18.32;97.52
72925;BME280;61070;50.794;7.054;2023-07-31T00:52:01;100533.47;;;18.32;97.32
72925;BME280;61070;50.794;7.054;2023-07-31T00:52:32;100531.75;;;18.31;97.03
72925;BME280;61070;50.794;7.054;2023-07-31T00:53:03;100526.44;;;18.29;97.92
72925;BME280;61070;50.794;7.054;2023-07-31T00:53:33;100526.59;;;18.26;98.58
72925;BME280;61070;50.794;7.054;2023-07-31T00:54:06;100525.34;;;18.33;97.28
72925;BME280;61070;50.794;7.054;2023-07-31T00:54:36;100521.00;;;18.31;97.66
72925;BME280;61070;50.794;7.054;2023-07-31T00:55:07;100524.63;;;18.30;98.16
72925;BME280;61070;50.794;7.054;2023-07-31T00:55:38;100522.66;;;18.33;97.25
72925;BME280;61070;50.794;7.054;2023-07-31T00:56:08;100519.03;;;18.34;97.25
72925;BME280;61070;50.794;7.054;2023-07-31T00:56:40;100521.81;;;18.33;97.98
72925;BME280;61070;50.794;7.054;2023-07-31T00:57:10;100508.63;;;18.28;98.12
72925;BME280;61070;50.794;7.054;2023-07-31T00:57:41;100520.81;;;18.36;97.19
72925;BME280;61070;50.794;7.054;2023-07-31T00:58:12;100518.94;;;18.38;96.71
72925;BME280;61070;50.794;7.054;2023-07-31T00:58:42;100520.75;;;18.37;96.94
72925;BME280;61070;50.794;7.054;2023-07-31T00:59:12;100518.94;;;18.38;96.81
72925;BME280;61070;50.794;7.054;2023-07-31T00:59:42;100520.00;;;18.33;97.16
72925;BME280;61070;50.794;7.054;2023-07-31T01:00:13;100515.84;;;18.45;97.21
72925;BME280;61070;50.794;7.054;2023-07-31T01:00:43;100520.34;;;18.45;96.49
72925;BME280;61070;50.794;7.054;2023-07-31T01:01:14;100513.41;;;18.41;97.16
72925;BME280;61070;50.794;7.054;2023-07-31T01:01:44;100509.34;;;18.32;96.65
72925;BME280;61070;50.794;7.054;2023-07-31T01:02:15;100513.41;;;18.41;96.42
72925;BME280;61070;50.794;7.054;2023-07-31T01:02:45;100520.25;;;18.48;96.01
72925;BME280;61070;50.794;7.054;2023-07-31T01:03:17;100518.44;;;18.48;95.52
72925;BME280;61070;50.794;7.054;2023-07-31T01:03:48;100514.13;;;18.44;96.01
72925;BME280;61070;50.794;7.054;2023-07-31T01:04:19;100517.19;;;18.37;96.68
72925;BME280;61070;50.794;7.054;2023-07-31T01:04:49;100513.69;;;18.34;97.35
72925;BME280;61070;50.794;7.054;2023-07-31T01:05:36;100513.63;;;18.36;97.04
72925;BME280;61070;50.794;7.054;2023-07-31T01:06:22;100512.63;;;18.39;96.58
72925;BME280;61070;50.794;7.054;2023-07-31T01:07:02;100509.63;;;18.45;96.42
72925;BME280;61070;50.794;7.054;2023-07-31T01:07:49;100513.34;;;18.42;95.91
72925;BME280;61070;50.794;7.054;2023-07-31T01:09:10;100514.13;;;18.44;96.87
72925;BME280;61070;50.794;7.054;2023-07-31T01:09:37;100518.19;;;18.34;96.45
72925;BME280;61070;50.794;7.054;2023-07-31T01:10:23;100506.53;;;18.35;97.10
72925;BME280;61070;50.794;7.054;2023-07-31T01:11:01;100508.03;;;18.41;96.03
72925;BME280;61070;50.794;7.054;2023-07-31T01:11:39;100516.00;;;18.42;96.42
72925;BME280;61070;50.794;7.054;2023-07-31T01:12:31;100510.00;;;18.37;96.97
72925;BME280;61070;50.794;7.054;2023-07-31T01:13:03;100501.97;;;18.37;96.69
72925;BME280;61070;50.794;7.054;2023-07-31T01:13:33;100509.16;;;18.37;96.54
72925;BME280;61070;50.794;7.054;2023-07-31T01:14:04;100508.03;;;18.41;96.30
72925;BME280;61070;50.794;7.054;2023-07-31T01:14:34;100513.56;;;18.38;96.86
72925;BME280;61070;50.794;7.054;2023-07-31T01:15:06;100505.38;;;18.41;96.41
72925;BME280;61070;50.794;7.054;2023-07-31T01:15:36;100500.50;;;18.49;96.11
72925;BME280;61070;50.794;7.054;2023-07-31T01:16:06;100505.09;;;18.47;96.19
72925;BME280;61070;50.794;7.054;2023-07-31T01:16:37;100502.53;;;18.44;96.38
72925;BME280;61070;50.794;7.054;2023-07-31T01:17:07;100498.34;;;18.38;96.27
72925;BME280;61070;50.794;7.054;2023-07-31T01:17:38;100501.09;;;18.37;97.49
72925;BME280;61070;50.794;7.054;2023-07-31T01:18:08;100499.56;;;18.31;98.36
72925;BME280;61070;50.794;7.054;2023-07-31T01:18:39;100502.31;;;18.29;98.54
72925;BME280;61070;50.794;7.054;2023-07-31T01:19:10;100498.63;;;18.32;97.67
72925;BME280;61070;50.794;7.054;2023-07-31T01:19:41;100500.50;;;18.30;97.95
72925;BME280;61070;50.794;7.054;2023-07-31T01:20:21;100497.31;;;18.41;98.12
72925;BME280;61070;50.794;7.054;2023-07-31T01:20:59;100507.88;;;18.44;97.81
72925;BME280;61070;50.794;7.054;2023-07-31T01:23:26;100494.00;;;18.36;98.13
72925;BME280;61070;50.794;7.054;2023-07-31T01:26:00;100499.63;;;18.29;98.94
72925;BME280;61070;50.794;7.054;2023-07-31T01:26:34;100499.94;;;18.23;99.54
72925;BME280;61070;50.794;7.054;2023-07-31T01:27:12;100506.59;;;18.15;100.00
72925;BME280;61070;50.794;7.054;2023-07-31T01:28:13;100507.09;;;18.23;100.00
72925;BME280;61070;50.794;7.054;2023-07-31T01:30:05;100506.28;;;18.21;100.00
72925;BME280;61070;50.794;7.054;2023-07-31T01:30:47;100494.13;;;18.32;100.00
72925;BME280;61070;50.794;7.054;2023-07-31T01:31:20;100494.69;;;18.20;100.00
72925;BME280;61070;50.794;7.054;2023-07-31T01:31:53;100495.56;;;18.21;100.00
72925;BME280;61070;50.794;7.054;2023-07-31T01:32:28;100497.59;;;18.16;100.00
72925;BME280;61070;50.794;7.054;2023-07-31T01:32:59;100498.25;;;18.21;100.00
72925;BME280;61070;50.794;7.054;2023-07-31T01:33:29;100497.19;;;18.25;100.00
72925;BME280;61070;50.794;7.054;2023-07-31T01:34:01;100505.56;;;18.17;100.00
72925;BME280;61070;50.794;7.054;2023-07-31T01:34:32;100505.84;;;18.11;100.00
72925;BME280;61070;50.794;7.054;2023-07-31T01:35:02;100498.88;;;18.07;100.00
72925;BME280;61070;50.794;7.054;2023-07-31T01:35:37;100511.19;;;18.11;100.00
72925;BME280;61070;50.794;7.054;2023-07-31T01:36:07;100500.47;;;18.11;100.00
72925;BME280;61070;50.794;7.054;2023-07-31T01:36:38;100506.22;;;18.03;100.00
72925;BME280;61070;50.794;7.054;2023-07-31T01:37:08;100506.34;;;18.00;100.00
72925;BME280;61070;50.794;7.054;2023-07-31T01:37:38;100501.19;;;17.96;100.00
72925;BME280;61070;50.794;7.054;2023-07-31T01:38:09;100493.84;;;18.01;100.00
72925;BME280;61070;50.794;7.054;2023-07-31T01:38:39;100502.66;;;18.03;100.00
72925;BME280;61070;50.794;7.054;2023-07-31T01:39:09;100506.34;;;18.00;100.00
72925;BME280;61070;50.794;7.054;2023-07-31T01:39:39;100500.94;;;18.02;100.00
72925;BME280;61070;50.794;7.054;2023-07-31T01:40:10;100497.94;;;18.08;100.00
72925;BME280;61070;50.794;7.054;2023-07-31T01:40:43;100511.94;;;18.15;100.00
72925;BME280;61070;50.794;7.054;2023-07-31T01:41:13;100502.06;;;17.96;100.00
72925;BME280;61070;50.794;7.054;2023-07-31T01:41:46;100497.50;;;17.98;100.00
72925;BME280;61070;50.794;7.054;2023-07-31T01:42:16;100506.69;;;17.93;100.00
72925;BME280;61070;50.794;7.054;2023-07-31T01:42:46;100495.75;;;17.97;100.00
72925;BME280;61070;50.794;7.054;2023-07-31T01:43:17;100503.81;;;17.97;100.00
72925;BME280;61070;50.794;7.054;2023-07-31T01:43:47;100500.06;;;18.01;100.00
72925;BME280;61070;50.794;7.054;2023-07-31T01:44:18;100496.91;;;17.92;100.00
72925;BME280;61070;50.794;7.054;2023-07-31T01:44:48;100504.28;;;17.87;100.00
72925;BME280;61070;50.794;7.054;2023-07-31T01:45:18;100506.97;;;17.87;100.00
72925;BME280;61070;50.794;7.054;2023-07-31T01:45:49;100505.75;;;17.94;100.00
72925;BME280;61070;50.794;7.054;2023-07-31T01:46:19;100506.03;;;17.88;100.00
72925;BME280;61070;50.794;7.054;2023-07-31T01:46:49;100507.13;;;17.84;100.00
72925;BME280;61070;50.794;7.054;2023-07-31T01:47:20;100500.88;;;17.83;100.00
72925;BME280;61070;50.794;7.054;2023-07-31T01:47:50;100503.72;;;17.80;100.00
72925;BME280;61070;50.794;7.054;2023-07-31T01:48:20;100502.00;;;17.78;100.00
72925;BME280;61070;50.794;7.054;2023-07-31T01:48:50;100505.53;;;17.80;100.00
72925;BME280;61070;50.794;7.054;2023-07-31T01:49:21;100503.91;;;17.75;100.00
72925;BME280;61070;50.794;7.054;2023-07-31T01:49:51;100501.69;;;17.85;100.00
72925;BME280;61070;50.794;7.054;2023-07-31T01:50:21;100507.44;;;17.76;100.00
72925;BME280;61070;50.794;7.054;2023-07-31T01:50:51;100503.78;;;17.79;100.00
72925;BME280;61070;50.794;7.054;2023-07-31T01:51:22;100510.13;;;17.76;100.00
72925;BME280;61070;50.794;7.054;2023-07-31T01:51:52;100501.22;;;17.75;100.00
72925;BME280;61070;50.794;7.054;2023-07-31T01:52:22;100509.16;;;17.79;100.00
72925;BME280;61070;50.794;7.054;2023-07-31T01:52:52;100503.91;;;17.75;100.00
72925;BME280;61070;50.794;7.054;2023-07-31T01:53:23;100504.66;;;17.79;100.00
72925;BME280;61070;50.794;7.054;2023-07-31T01:53:53;100507.44;;;17.76;100.00
72925;BME280;61070;50.794;7.054;2023-07-31T01:54:23;100508.38;;;17.75;100.00
72925;BME280;61070;50.794;7.054;2023-07-31T01:54:53;100503.03;;;17.75;100.00
72925;BME280;61070;50.794;7.054;2023-07-31T01:55:24;100501.16;;;17.77;100.00
72925;BME280;61070;50.794;7.054;2023-07-31T01:55:54;100509.16;;;17.79;100.00
72925;BME280;61070;50.794;7.054;2023-07-31T01:56:24;100505.53;;;17.80;100.00
72925;BME280;61070;50.794;7.054;2023-07-31T01:56:54;100507.25;;;17.81;100.00
72925;BME280;61070;50.794;7.054;2023-07-31T01:57:25;100508.19;;;17.80;100.00
72925;BME280;61070;50.794;7.054;2023-07-31T01:57:55;100497.41;;;17.81;100.00
72925;BME280;61070;50.794;7.054;2023-07-31T01:58:25;100510.88;;;17.80;100.00
72925;BME280;61070;50.794;7.054;2023-07-31T01:58:56;100498.53;;;17.75;100.00
72925;BME280;61070;50.794;7.054;2023-07-31T01:59:26;100502.13;;;17.95;100.00
72925;BME280;61070;50.794;7.054;2023-07-31T01:59:56;100491.50;;;17.93;100.00
72925;BME280;61070;50.794;7.054;2023-07-31T02:00:26;100488.81;;;17.93;100.00
72925;BME280;61070;50.794;7.054;2023-07-31T02:00:57;100500.75;;;17.86;100.00
72925;BME280;61070;50.794;7.054;2023-07-31T02:01:27;100498.13;;;17.85;100.00
72925;BME280;61070;50.794;7.054;2023-07-31T02:01:57;100493.00;;;17.80;100.00
72925;BME280;61070;50.794;7.054;2023-07-31T02:02:27;100493.06;;;17.79;100.00
72925;BME280;61070;50.794;7.054;2023-07-31T02:02:59;100497.47;;;17.80;100.00
72925;BME280;61070;50.794;7.054;2023-07-31T02:03:29;100498.28;;;17.82;100.00
72925;BME280;61070;50.794;7.054;2023-07-31T02:04:00;100495.66;;;17.80;100.00
72925;BME280;61070;50.794;7.054;2023-07-31T02:04:30;100489.16;;;17.86;100.00
72925;BME280;61070;50.794;7.054;2023-07-31T02:05:00;100485.59;;;17.85;100.00
72925;BME280;61070;50.794;7.054;2023-07-31T02:05:30;100487.06;;;17.92;100.00
72925;BME280;61070;50.794;7.054;2023-07-31T02:06:01;100485.75;;;17.82;100.00
72925;BME280;61070;50.794;7.054;2023-07-31T02:06:31;100484.09;;;17.80;100.00
72925;BME280;61070;50.794;7.054;2023-07-31T02:07:01;100487.41;;;17.85;100.00
72925;BME280;61070;50.794;7.054;2023-07-31T02:07:32;100492.13;;;17.80;100.00
72925;BME280;61070;50.794;7.054;2023-07-31T02:08:02;100483.41;;;17.74;100.00
72925;BME280;61070;50.794;7.054;2023-07-31T02:08:32;100481.09;;;17.86;100.00
72925;BME280;61070;50.794;7.054;2023-07-31T02:09:03;100473.22;;;17.83;100.00
72925;BME280;61070;50.794;7.054;2023-07-31T02:09:33;100479.38;;;17.85;100.00
72925;BME280;61070;50.794;7.054;2023-07-31T02:10:04;100475.19;;;17.98;100.00
72925;BME280;61070;50.794;7.054;2023-07-31T02:10:34;100480.09;;;17.88;100.00
72925;BME280;61070;50.794;7.054;2023-07-31T02:11:04;100487.00;;;17.94;100.00
72925;BME280;61070;50.794;7.054;2023-07-31T02:11:35;100469.72;;;18.01;100.00
72925;BME280;61070;50.794;7.054;2023-07-31T02:12:05;100477.75;;;18.01;100.00
72925;BME280;61070;50.794;7.054;2023-07-31T02:12:38;100471.94;;;17.91;100.00
72925;BME280;61070;50.794;7.054;2023-07-31T02:13:08;100475.09;;;17.99;100.00
72925;BME280;61070;50.794;7.054;2023-07-31T02:13:38;100480.78;;;17.93;100.00
72925;BME280;61070;50.794;7.054;2023-07-31T02:14:09;100475.25;;;17.96;100.00
72925;BME280;61070;50.794;7.054;2023-07-31T02:14:40;100481.41;;;17.98;100.00
72925;BME280;61070;50.794;7.054;2023-07-31T02:15:10;100472.50;;;17.98;100.00
72925;BME280;61070;50.794;7.054;2023-07-31T02:15:40;100472.81;;;17.92;100.00
72925;BME280;61070;50.794;7.054;2023-07-31T02:16:11;100474.69;;;17.90;100.00
72925;BME280;61070;50.794;7.054;2023-07-31T02:16:41;100469.03;;;17.96;100.00
72925;BME280;61070;50.794;7.054;2023-07-31T02:17:12;100474.13;;;18.02;100.00
72925;BME280;61070;50.794;7.054;2023-07-31T02:17:43;100473.38;;;17.98;100.00
72925;BME280;61070;50.794;7.054;2023-07-31T02:18:13;100473.19;;;18.03;100.00
72925;BME280;61070;50.794;7.054;2023-07-31T02:18:43;100474.25;;;17.99;100.00
72925;BME280;61070;50.794;7.054;2023-07-31T02:19:13;100473.59;;;17.94;100.00
72925;BME280;61070;50.794;7.054;2023-07-31T02:19:44;100470.13;;;17.92;100.00
72925;BME280;61070;50.794;7.054;2023-07-31T02:20:14;100469.31;;;17.90;100.00
72925;BME280;61070;50.794;7.054;2023-07-31T02:20:49;100472.00;;;17.90;100.00
72925;BME280;61070;50.794;7.054;2023-07-31T02:21:20;100465.03;;;17.86;100.00
72925;BME280;61070;50.794;7.054;2023-07-31T02:21:50;100465.03;;;17.86;100.00
72925;BME280;61070;50.794;7.054;2023-07-31T02:22:20;100468.50;;;17.88;100.00
72925;BME280;61070;50.794;7.054;2023-07-31T02:22:51;100473.75;;;17.91;100.00
72925;BME280;61070;50.794;7.054;2023-07-31T02:23:21;100468.56;;;17.86;100.00
72925;BME280;61070;50.794;7.054;2023-07-31T02:23:51;100466.50;;;17.93;100.00
72925;BME280;61070;50.794;7.054;2023-07-31T02:24:21;100462.19;;;17.89;100.00
72925;BME280;61070;50.794;7.054;2023-07-31T02:24:52;100467.94;;;17.81;100.00
72925;BME280;61070;50.794;7.054;2023-07-31T02:25:22;100462.34;;;17.86;100.00
72925;BME280;61070;50.794;7.054;2023-07-31T02:25:52;100472.72;;;17.93;100.00
72925;BME280;61070;50.794;7.054;2023-07-31T02:26:22;100468.50;;;17.88;100.00
72925;BME280;61070;50.794;7.054;2023-07-31T02:26:53;100462.09;;;17.92;100.00
72925;BME280;61070;50.794;7.054;2023-07-31T02:27:23;100464.75;;;17.92;100.00
72925;BME280;61070;50.794;7.054;2023-07-31T02:27:57;100465.25;;;18.00;100.00
72925;BME280;61070;50.794;7.054;2023-07-31T02:28:29;100461.06;;;17.94;100.00
72925;BME280;61070;50.794;7.054;2023-07-31T02:28:59;100471.78;;;17.94;100.00
72925;BME280;61070;50.794;7.054;2023-07-31T02:29:29;100464.75;;;17.92;100.00
72925;BME280;61070;50.794;7.054;2023-07-31T02:30:00;100458.91;;;18.02;100.00
72925;BME280;61070;50.794;7.054;2023-07-31T02:30:30;100461.06;;;17.94;100.00
72925;BME280;61070;50.794;7.054;2023-07-31T02:31:00;100455.97;;;17.88;100.00
72925;BME280;61070;50.794;7.054;2023-07-31T02:31:30;100463.81;;;17.93;100.00
72925;BME280;61070;50.794;7.054;2023-07-31T02:32:01;100454.84;;;17.94;100.00
72925;BME280;61070;50.794;7.054;2023-07-31T02:32:31;100460.34;;;17.91;100.00
72925;BME280;61070;50.794;7.054;2023-07-31T02:33:01;100454.69;;;17.97;100.00
72925;BME280;61070;50.794;7.054;2023-07-31T02:33:32;100456.31;;;18.01;100.00
72925;BME280;61070;50.794;7.054;2023-07-31T02:34:02;100454.53;;;18.00;100.00
72925;BME280;61070;50.794;7.054;2023-07-31T02:34:32;100449.47;;;17.94;100.00
72925;BME280;61070;50.794;7.054;2023-07-31T02:35:03;100455.09;;;17.88;100.00
72925;BME280;61070;50.794;7.054;2023-07-31T02:35:33;100452.09;;;17.95;100.00
72925;BME280;61070;50.794;7.054;2023-07-31T02:36:04;100457.66;;;17.91;100.00
72925;BME280;61070;50.794;7.054;2023-07-31T02:36:34;100451.63;;;17.86;100.00
72925;BME280;61070;50.794;7.054;2023-07-31T02:37:04;100453.59;;;17.82;100.00
72925;BME280;61070;50.794;7.054;2023-07-31T02:37:36;100446.41;;;17.83;100.00
72925;BME280;61070;50.794;7.054;2023-07-31T02:38:06;100453.66;;;17.81;100.00
72925;BME280;61070;50.794;7.054;2023-07-31T02:38:36;100446.56;;;17.80;100.00
72925;BME280;61070;50.794;7.054;2023-07-31T02:39:06;100450.03;;;17.82;100.00
72925;BME280;61070;50.794;7.054;2023-07-31T02:39:37;100450.59;;;17.88;100.00
72925;BME280;61070;50.794;7.054;2023-07-31T02:40:07;100442.94;;;17.99;100.00
72925;BME280;61070;50.794;7.054;2023-07-31T02:40:39;100448.59;;;17.93;100.00
72925;BME280;61070;50.794;7.054;2023-07-31T02:41:11;100454.91;;;17.92;100.00
72925;BME280;61070;50.794;7.054;2023-07-31T02:41:41;100449.56;;;17.92;100.00
72925;BME280;61070;50.794;7.054;2023-07-31T02:42:13;100444.38;;;17.88;100.00
72925;BME280;61070;50.794;7.054;2023-07-31T02:42:43;100444.25;;;17.91;100.00
72925;BME280;61070;50.794;7.054;2023-07-31T02:43:13;100446.28;;;17.86;100.00
72925;BME280;61070;50.794;7.054;2023-07-31T02:43:43;100439.16;;;17.85;100.00
72925;BME280;61070;50.794;7.054;2023-07-31T02:44:14;100444.47;;;17.86;100.00
72925;BME280;61070;50.794;7.054;2023-07-31T02:44:44;100445.25;;;17.88;100.00
72925;BME280;61070;50.794;7.054;2023-07-31T02:45:14;100444.03;;;17.95;100.00
72925;BME280;61070;50.794;7.054;2023-07-31T02:45:45;100441.50;;;17.92;100.00
72925;BME280;61070;50.794;7.054;2023-07-31T02:46:15;100443.50;;;17.87;100.00
72925;BME280;61070;50.794;7.054;2023-07-31T02:46:45;100439.41;;;17.99;100.00
72925;BME280;61070;50.794;7.054;2023-07-31T02:47:15;100443.03;;;17.98;100.00
72925;BME280;61070;50.794;7.054;2023-07-31T02:47:46;100443.25;;;17.93;100.00